»·PEaware :: N1343F KCHD-A39

N1343F :: KCHD-A39

FLIGHT INFORMATION

Flight Status: Arrived
Operator: Privately registered:
United States
More flights under this callsign
Pilot: David B. (14064)
Aircraft: CESSNA 172 SKYHAWK
(C172)
More flights by this aircraft type
Origin: KCHD Chandler Mun
United States
Destination: A39 Ak-Chin Regional
United States
More flights between these airports :: More routes between these airports
Route:
File this flight plan on PilotEdge
Remarks:
Altitude:
(Current/Filed)
3,000ft
Speed:
(Current/Filed)
100kts
Departed: 26-Mar-21 04:17 PM
Arrived: 26-Mar-21 04:31 PM
Distance/Time
Traveled:
18nm/0:14
Distance/Time
To Go:
Arrived

Flight Plot

Page will automatically refresh every two minutes.

Flight plan parsing failed; only flown route is shown


Map Options




Map Legend


Flown Route
Filed Route
Departure Airport
Arrival Airport
Navaid (VOR, NDB)
Fix

Horizontal Profiles

Position Reports

Time Latitude Longitude Heading Altitude Ground
Speed
26-Mar-21 15:36 33.272537 -111.812752 270 1235ft 0kts
26-Mar-21 15:37 33.272537 -111.812752 270 1235ft 0kts
26-Mar-21 15:38 33.272537 -111.812752 270 1235ft 0kts
26-Mar-21 15:39 33.272537 -111.812752 270 1235ft 0kts
26-Mar-21 15:40 33.272537 -111.812752 270 1235ft 0kts
26-Mar-21 15:41 33.272537 -111.812752 270 1235ft 0kts
26-Mar-21 15:42 33.272537 -111.812752 270 1235ft 0kts
26-Mar-21 15:43 33.272537 -111.812752 270 1235ft 0kts
26-Mar-21 15:44 33.272537 -111.812752 270 1235ft 0kts
26-Mar-21 15:45 33.272537 -111.812752 270 1235ft 0kts
26-Mar-21 15:46 33.272537 -111.812752 270 1235ft 0kts
26-Mar-21 15:47 33.272537 -111.812752 270 1235ft 0kts
26-Mar-21 15:48 33.272537 -111.812752 270 1235ft 0kts
26-Mar-21 15:49 33.272537 -111.812752 270 1235ft 0kts
26-Mar-21 15:50 33.272537 -111.812752 270 1235ft 0kts
26-Mar-21 15:51 33.272530 -111.812843 263 1235ft 0kts
26-Mar-21 15:52 33.272530 -111.812843 263 1235ft 0kts
26-Mar-21 15:53 33.272530 -111.812843 263 1235ft 0kts
26-Mar-21 15:54 33.272530 -111.812843 263 1235ft 0kts
26-Mar-21 15:55 33.272530 -111.812843 263 1235ft 0kts
26-Mar-21 15:56 33.272530 -111.812843 263 1235ft 0kts
26-Mar-21 15:57 33.272530 -111.812843 263 1235ft 0kts
26-Mar-21 15:58 33.272558 -111.812904 330 1235ft 2kts
26-Mar-21 15:59 33.272634 -111.812918 0 1235ft 0kts
26-Mar-21 16:00 33.272634 -111.812918 0 1235ft 0kts
26-Mar-21 16:01 33.272634 -111.812918 0 1235ft 0kts
26-Mar-21 16:02 33.272634 -111.812918 0 1235ft 0kts
26-Mar-21 16:03 33.272634 -111.812918 0 1235ft 0kts
26-Mar-21 16:04 33.272634 -111.812918 0 1235ft 0kts
26-Mar-21 16:05 33.272634 -111.812918 0 1235ft 0kts
26-Mar-21 16:06 33.272634 -111.812918 0 1235ft 0kts
26-Mar-21 16:07 33.272634 -111.812918 0 1235ft 0kts
26-Mar-21 16:08 33.272634 -111.812918 0 1235ft 0kts
26-Mar-21 16:09 33.272891 -111.812483 96 1236ft 0kts
26-Mar-21 16:10 33.272891 -111.812483 96 1236ft 0kts
26-Mar-21 16:11 33.272688 -111.812123 170 1236ft 5kts
26-Mar-21 16:12 33.272152 -111.812000 146 1237ft 4kts
26-Mar-21 16:13 33.272461 -111.809845 47 1239ft 10kts
26-Mar-21 16:14 33.272459 -111.809493 134 1240ft 0kts
26-Mar-21 16:15 33.271748 -111.809265 230 1239ft 10kts
26-Mar-21 16:16 33.259857 -111.826063 231 1772ft 89kts
26-Mar-21 16:17 33.235515 -111.833572 193 2641ft 98kts
26-Mar-21 16:18 33.209213 -111.840198 203 3055ft 95kts
26-Mar-21 16:19 33.183980 -111.850168 203 3026ft 96kts
26-Mar-21 16:20 33.158225 -111.859423 200 2982ft 96kts
26-Mar-21 16:21 33.132262 -111.867341 206 2943ft 95kts
26-Mar-21 16:22 33.107525 -111.878757 206 2899ft 96kts
26-Mar-21 16:23 33.083928 -111.893531 209 2498ft 101kts
26-Mar-21 16:25 33.059813 -111.904757 209 2040ft 96kts
26-Mar-21 16:26 33.034595 -111.915328 200 1756ft 91kts
26-Mar-21 16:27 33.009005 -111.919155 182 1707ft 94kts
26-Mar-21 16:28 32.987768 -111.932768 230 1719ft 90kts
26-Mar-21 16:29 32.969691 -111.945643 110 1701ft 87kts
26-Mar-21 16:30 32.983405 -111.928235 43 1420ft 73kts
26-Mar-21 16:31 32.993047 -111.915577 48 1300ft 27kts
26-Mar-21 16:32 32.993883 -111.913561 228 1304ft 6kts
26-Mar-21 16:33 32.991308 -111.916930 227 1296ft 7kts
26-Mar-21 16:34 32.990371 -111.917733 227 1295ft 0kts
26-Mar-21 16:35 32.990370 -111.917734 226 1295ft 0kts
26-Mar-21 16:36 32.990370 -111.917734 226 1295ft 0kts
26-Mar-21 16:37 32.990370 -111.917734 226 1295ft 0kts
26-Mar-21 16:38 32.990370 -111.917734 226 1295ft 0kts
26-Mar-21 16:39 32.990344 -111.917776 243 1295ft 3kts
26-Mar-21 16:40 32.989561 -111.919241 226 1292ft 6kts
26-Mar-21 16:41 32.988223 -111.921015 227 1286ft 9kts
26-Mar-21 16:42 32.986388 -111.923430 227 1280ft 9kts
26-Mar-21 16:43 32.985872 -111.924296 321 1278ft 0kts
26-Mar-21 16:44 32.985872 -111.924296 321 1278ft 0kts
26-Mar-21 16:45 32.985872 -111.924296 321 1278ft 0kts

Navigation Log

Ident Type
Flight plan parsing failed, navigation log unavailable